Aeroporto :
LOGIN :

Iscrizione | Disclaimer

   EN    FR    IT 

 










Sommario :    VFR   VFR Marginale   IFR   IFR Intensivo   IFR Molto Intensivo
Visibilità : 
Base nubi : 
>= 8 km
>= 3000ft
5 / 8 km
1000 / 3000 ft
1500m / 5 km
500 / 1000 ft
800 / 1500m
200 / 500 ft
< 800m
< 200 ft
Simboli :   Temporali  Nebbia  Neve Forte  Precipitazioni Forti  Vento > 20 kt
SIGMETs :   Varie  Temporali  Ghiacco  Turbolenza  Onda orograficha  Ceneri Vulcaniche






- Altitudine del aeroporto : 459 ft
- Codice IATA : CER


LFRC - Cherbourg / Maupertus

ULTIMO METAR :
  • 231300Z AUTO 31009KT 270V010 9999 BKN017 BKN035 BKN042 10/06 Q1022 TEMPO 4000 SHRA BKN012 SCT020TCU

METARs OBSOLETI :
  • 231230Z AUTO 32008KT 290V360 9999 BKN016 BKN054 10/06 Q1023 TEMPO 4000 SHRA BKN012 SCT020TCU
  • 231200Z AUTO 31009KT 270V340 9999 BKN018 BKN024 OVC030 10/06 Q1023 TEMPO 4000 SHRA BKN012 SCT020TCU
  • 231130Z AUTO 32008KT 290V020 9999 BKN019 09/05 Q1023 TEMPO 4000 SHRA BKN012 SCT020TCU
  • 231100Z AUTO 36005KT 280V050 9999 BKN019 10/05 Q1023 TEMPO 4000 SHRA BKN012 SCT020TCU
  • 231030Z AUTO 02004KT 320V090 9999 OVC018 09/05 Q1023 TEMPO 4000 SHRA BKN012 SCT020TCU
  • 231000Z AUTO 01006KT 340V050 9999 BKN022 OVC027 08/05 Q1023 TEMPO 4000 SHRA BKN012 SCT020TCU
  • 230930Z AUTO 36005KT 320V040 9999 SCT018 OVC025 08/05 Q1023 TEMPO 4000 SHRA BKN012 SCT020TCU
  • 230900Z AUTO 36005KT 9999 OVC024 08/04 Q1023 TEMPO 4000 -SHRA BKN012
  • 230830Z AUTO 36003KT 320V040 9999 OVC027 08/05 Q1023 TEMPO 4000 -SHRA BKN012

TAF TAF LFRC
Valido dal 23 a 12 ore il 23 a 21 ore UTC


231100Z 2312/2321 VRB04KT 9999 BKN025
BECMG 2312/2314 35010KT
PROB40
TEMPO 2313/2320 4000 SHRA BKN012 SCT020TCU



MetMap, La meteo Aeronautica in un colpo d'occhio ! - Copyright ORBIFLY Dicembre 2007 - Disclaimer

ORBIFLY MET'MAP TEAM :

Programmazione e sviluppo : Alexandra Zaïnal
Concezione : Baudouin d'Aumeries
Supporto tecnico e logistico : Manuel Goepfert
Aiuto : Marc-Olivier Méhu
Aiuto per la traduzione : Arnaldo La Scala




FONTI E CREDITI :

   NOAA